McChord Air Force Base
KTCM : now visible

Airfield :











YOU CAN JOIN US ON...

 
LOGIN :

Register | Disclaimer

   EN    FR    IT 

 









Legend :    VFR   Marginal VFR   IFR   Intensive IFR   Very Intensive IFR
Visi :
Ceiling :
>= 8 km
>= 3000ft
5 to 8 km
1000 to 3000 ft
1500m to 5 km
500 to 1000 ft
800 to 1500m
200 to 500 ft
< 800m
< 200 ft
Symbols :   Thunderstorms  Fog  Heavy snow  Heavy precipitations  Wind > 20 kt






- Airport Elevation : 322 ft


KTCM - McChord Air Force Base

CURRENT METAR :
  • 031058Z AUTO 16003KT 10SM OVC012 15/12 A3014 RMK AO2 OVC V BKN SLP209 T01480119 $

EXPIRED METARs :
  • 031038Z AUTO 00000KT 10SM BKN013 14/11 A3014 RMK AO2 SLP209 $
  • 030958Z AUTO 18006KT 10SM CLR 13/11 A3013 RMK AO2 SLP206 T01310106 $
  • 030858Z AUTO 30004KT 10SM CLR 15/11 A3012 RMK AO2 SLP202 53005

TAF TAF KTCM
Valid from the 03 at 05:00 until the 04 at 11:00 UTC


030500Z 0305/0411 22005KT 9999 BKN080 QNH3010INS
BECMG 0310/0311 22006KT 9999 OVC015 QNH3014INS
TEMPO 0311/0317 BKN008
BECMG 0318/0319 24010KT 9999 SCT020 QNH3011INS
BECMG 0402/0403 29006KT 9999 SCT050 QNH3010INS
BECMG 0407/0408 31004KT 9999 BKN020 QNH3009INS TX26/0323Z TN14/0313Z
KZSE FIR / North America



MET'MAP, your aeronautical weather chart ! - Copyright ORBIFLY December 2007 - Disclaimer

ORBIFLY MET'MAP TEAM :

Programming & Development : Alexandra Zaïnal
Concept & original design : Baudouin d'Aumeries
Assistance for programming : Marc-Olivier Méhu
Technical & hardware support : Manuel Goepfert

Contact : metmap@orbifly.com




SOURCES & CREDITS :

   NOAA       Earth
Advisory